createdAt,value
2019-05-25T00:02:07.047Z,73.40
2019-05-25T00:04:35.492Z,73.50
2019-05-25T00:07:05.524Z,73.60
2019-05-25T00:09:33.965Z,73.80
2019-05-25T00:12:02.423Z,73.80
2019-05-25T00:14:30.934Z,73.70
2019-05-25T00:16:59.362Z,73.60
2019-05-25T00:19:27.824Z,73.60
2019-05-25T00:21:56.263Z,73.50
2019-05-25T00:24:24.719Z,73.70
2019-05-25T00:26:53.169Z,73.70
2019-05-25T00:29:21.640Z,73.80
2019-05-25T00:31:50.066Z,73.80
2019-05-25T00:34:18.529Z,73.70
2019-05-25T00:36:46.963Z,73.90
2019-05-25T00:39:15.508Z,73.80
2019-05-25T00:41:43.952Z,74.20
2019-05-25T00:44:12.385Z,74.20
2019-05-25T00:46:40.912Z,74.20
2019-05-25T00:49:09.358Z,74.50
2019-05-25T00:51:37.805Z,74.60
2019-05-25T00:54:06.248Z,74.60
2019-05-25T00:56:34.693Z,74.80
2019-05-25T00:59:03.206Z,74.90
2019-05-25T01:01:31.716Z,74.90
2019-05-25T01:04:02.971Z,75.00
2019-05-25T01:06:31.411Z,75.00
2019-05-25T01:08:59.876Z,74.90
2019-05-25T01:11:28.308Z,75.10
2019-05-25T01:13:57.074Z,75.10
2019-05-25T01:16:25.518Z,75.00
2019-05-25T01:18:53.980Z,75.10
2019-05-25T01:21:22.409Z,75.30
2019-05-25T01:23:50.856Z,75.10
2019-05-25T01:26:19.294Z,75.10
2019-05-25T01:28:48.790Z,75.10
2019-05-25T01:31:17.249Z,75.10
2019-05-25T01:33:45.690Z,75.00
2019-05-25T01:36:14.144Z,75.10
2019-05-25T01:38:42.583Z,75.20
2019-05-25T01:41:11.027Z,75.30
2019-05-25T01:43:39.475Z,75.30
2019-05-25T01:46:07.917Z,75.30
2019-05-25T01:48:36.379Z,75.30
2019-05-25T01:51:04.886Z,75.40
2019-05-25T01:53:33.345Z,76.10
2019-05-25T01:56:01.801Z,75.50
2019-05-25T01:58:30.257Z,75.60
2019-05-25T02:00:58.699Z,75.60
2019-05-25T02:03:27.518Z,75.50
2019-05-25T02:05:55.979Z,75.30
2019-05-25T02:08:33.508Z,75.40
2019-05-25T02:11:09.456Z,75.20
2019-05-25T02:13:38.866Z,75.30
2019-05-25T02:16:10.336Z,75.40
2019-05-25T02:18:38.771Z,75.40
2019-05-25T02:21:07.216Z,75.40
2019-05-25T02:23:35.679Z,75.50
2019-05-25T02:26:04.293Z,75.60
2019-05-25T02:28:32.823Z,75.70
2019-05-25T02:31:01.261Z,75.40
2019-05-25T02:33:29.702Z,75.30
2019-05-25T02:36:14.458Z,75.40
2019-05-25T02:38:45.877Z,75.00
2019-05-25T02:41:14.324Z,74.80
2019-05-25T02:43:42.765Z,74.80
2019-05-25T02:46:11.288Z,74.90
2019-05-25T02:48:39.723Z,74.80
2019-05-25T02:51:08.177Z,74.80
2019-05-25T02:53:36.605Z,74.60
2019-05-25T02:56:05.138Z,74.50
2019-05-25T02:58:33.584Z,74.50
2019-05-25T03:01:02.205Z,74.50
2019-05-25T03:03:30.636Z,74.60
2019-05-25T03:05:59.963Z,74.60
2019-05-25T03:08:28.536Z,74.60
2019-05-25T03:10:58.322Z,74.50
2019-05-25T03:13:27.949Z,74.40
2019-05-25T03:15:56.404Z,75.20
2019-05-25T03:18:24.861Z,74.70
2019-05-25T03:20:53.295Z,74.60
2019-05-25T03:23:21.738Z,74.60
2019-05-25T03:25:50.465Z,74.70
2019-05-25T03:28:19.482Z,74.70
2019-05-25T03:30:48.051Z,74.80
2019-05-25T03:33:16.509Z,74.80
2019-05-25T03:35:44.967Z,74.80
2019-05-25T03:38:13.447Z,75.00
2019-05-25T03:40:41.899Z,75.00
2019-05-25T03:43:10.336Z,75.20
2019-05-25T03:45:38.788Z,75.00
2019-05-25T03:48:07.369Z,75.00
2019-05-25T03:50:35.819Z,74.90
2019-05-25T03:53:05.982Z,75.60
2019-05-25T03:55:34.432Z,74.60
2019-05-25T03:58:02.881Z,74.70
2019-05-25T04:00:36.774Z,74.80
2019-05-25T04:03:06.080Z,75.40
2019-05-25T04:05:34.771Z,74.90
2019-05-25T04:08:03.369Z,75.00
2019-05-25T04:10:31.826Z,74.90
2019-05-25T04:13:00.264Z,75.00
2019-05-25T04:15:28.792Z,75.10
2019-05-25T04:17:57.224Z,75.10
2019-05-25T04:20:28.678Z,75.40
2019-05-25T04:23:08.329Z,75.40
2019-05-25T04:25:36.788Z,75.50
2019-05-25T04:28:05.395Z,75.40
2019-05-25T04:30:33.852Z,75.50
2019-05-25T04:33:02.312Z,75.50
2019-05-25T04:35:30.830Z,75.70
2019-05-25T04:37:59.288Z,75.70
2019-05-25T04:40:28.730Z,75.70
2019-05-25T04:42:57.152Z,76.00
2019-05-25T04:45:25.592Z,76.00
2019-05-25T04:47:54.052Z,76.00
2019-05-25T04:50:22.631Z,75.60
2019-05-25T04:52:51.081Z,75.90
2019-05-25T04:55:19.526Z,75.70
2019-05-25T04:57:48.043Z,75.70
2019-05-25T05:00:16.634Z,76.10
2019-05-25T05:02:45.067Z,76.30
2019-05-25T05:05:14.160Z,76.50
2019-05-25T05:07:42.606Z,76.50
2019-05-25T05:10:11.489Z,76.70
2019-05-25T05:12:39.939Z,77.00
2019-05-25T05:15:08.756Z,77.30
2019-05-25T05:17:37.334Z,77.40
2019-05-25T05:20:08.280Z,77.60
2019-05-25T05:22:36.734Z,78.00
2019-05-25T05:25:06.199Z,77.80
2019-05-25T05:27:34.663Z,77.60
2019-05-25T05:30:08.515Z,77.60
2019-05-25T05:32:37.115Z,77.90
2019-05-25T05:35:09.576Z,78.30
2019-05-25T05:37:39.675Z,78.50
2019-05-25T05:40:08.763Z,78.50
2019-05-25T05:42:39.430Z,78.60
2019-05-25T05:45:09.019Z,78.30
2019-05-25T05:47:37.639Z,78.10
2019-05-25T05:50:08.334Z,77.70
2019-05-25T05:52:39.986Z,77.80
2019-05-25T05:55:11.179Z,78.20
2019-05-25T05:57:39.629Z,78.20
2019-05-25T06:00:10.023Z,77.60
2019-05-25T06:02:38.463Z,77.50
2019-05-25T06:05:07.148Z,77.40
2019-05-25T06:07:54.942Z,77.20
2019-05-25T06:10:23.535Z,77.40
2019-05-25T06:12:51.975Z,77.20
2019-05-25T06:15:20.413Z,76.80
2019-05-25T06:17:48.861Z,76.80
2019-05-25T06:20:17.372Z,76.50
2019-05-25T06:22:45.851Z,76.50
2019-05-25T06:25:14.433Z,76.30
2019-05-25T06:27:45.738Z,76.20
2019-05-25T06:30:14.577Z,76.30
2019-05-25T06:32:43.107Z,76.30
2019-05-25T06:35:11.869Z,76.60
2019-05-25T06:37:40.324Z,76.30
2019-05-25T06:40:09.507Z,76.10
2019-05-25T06:42:38.175Z,75.80
2019-05-25T06:45:07.848Z,75.40
2019-05-25T06:47:36.304Z,74.60
2019-05-25T06:50:08.607Z,74.30
2019-05-25T06:52:37.065Z,74.50
2019-05-25T06:55:07.407Z,73.90
2019-05-25T06:57:43.223Z,73.50
2019-05-25T07:00:10.063Z,73.30
2019-05-25T07:02:38.586Z,72.70
2019-05-25T07:05:08.581Z,72.70
2019-05-25T07:07:38.681Z,72.60
2019-05-25T07:10:08.394Z,72.80
2019-05-25T07:12:36.868Z,73.10
2019-05-25T07:15:09.131Z,73.30
2019-05-25T07:17:37.560Z,73.50
2019-05-25T07:20:08.668Z,73.10
2019-05-25T07:22:37.192Z,73.40
2019-05-25T07:25:06.535Z,74.00
2019-05-25T07:27:35.060Z,74.40
2019-05-25T07:30:04.650Z,74.90
2019-05-25T07:32:33.113Z,75.60
2019-05-25T07:35:01.585Z,76.60
2019-05-25T07:37:30.074Z,75.20
2019-05-25T07:39:59.092Z,74.90
2019-05-25T07:42:28.884Z,74.20
2019-05-25T07:44:57.323Z,73.90
2019-05-25T07:47:25.776Z,73.40
2019-05-25T07:49:54.221Z,72.90
2019-05-25T07:52:22.680Z,72.30
2019-05-25T07:54:51.132Z,71.40
2019-05-25T07:57:19.577Z,69.70
2019-05-25T07:59:48.099Z,69.50
2019-05-25T08:02:16.540Z,69.20
2019-05-25T08:04:45.050Z,67.70
2019-05-25T08:07:13.743Z,67.10
2019-05-25T08:09:42.192Z,67.20
2019-05-25T08:12:10.648Z,66.50
2019-05-25T08:14:39.071Z,65.90
2019-05-25T08:17:07.663Z,65.80
2019-05-25T08:19:36.115Z,65.00
2019-05-25T08:22:04.809Z,65.20
2019-05-25T08:24:33.244Z,65.40
2019-05-25T08:27:01.703Z,65.40
2019-05-25T08:29:30.215Z,66.30
2019-05-25T08:31:58.655Z,65.50
2019-05-25T08:34:27.092Z,65.10
2019-05-25T08:36:55.610Z,65.80
2019-05-25T08:39:24.049Z,66.50
2019-05-25T08:41:52.491Z,66.30
2019-05-25T08:44:20.932Z,66.40
2019-05-25T08:46:49.383Z,66.60
2019-05-25T08:49:17.830Z,66.60
2019-05-25T08:51:46.287Z,65.90
2019-05-25T08:54:14.747Z,66.60
2019-05-25T08:56:43.200Z,66.00
2019-05-25T08:59:11.636Z,64.90
2019-05-25T09:01:40.082Z,64.20
2019-05-25T09:04:08.584Z,63.00
2019-05-25T09:06:39.829Z,62.90
2019-05-25T09:09:08.761Z,62.80
2019-05-25T09:11:37.258Z,62.70
2019-05-25T09:14:05.786Z,63.20
2019-05-25T09:16:34.212Z,63.20
2019-05-25T09:19:02.662Z,63.70
2019-05-25T09:21:31.107Z,64.10
2019-05-25T09:23:59.546Z,64.60
2019-05-25T09:26:27.988Z,64.90
2019-05-25T09:29:04.511Z,65.20
2019-05-25T09:31:27.781Z,65.60
2019-05-25T09:33:56.235Z,65.80
2019-05-25T09:36:24.798Z,66.50
2019-05-25T09:38:53.236Z,66.80
2019-05-25T09:41:21.676Z,67.60
2019-05-25T09:43:50.119Z,67.90
2019-05-25T09:46:18.716Z,67.90
2019-05-25T09:48:47.297Z,68.30
2019-05-25T09:51:16.085Z,67.70
2019-05-25T09:53:44.658Z,67.30
2019-05-25T09:56:13.124Z,67.70
2019-05-25T09:58:41.576Z,67.30
2019-05-25T10:01:10.085Z,66.70
2019-05-25T10:03:38.535Z,65.70
2019-05-25T10:06:11.495Z,64.90
2019-05-25T10:08:37.255Z,64.50
2019-05-25T10:11:05.687Z,64.30
2019-05-25T10:13:34.143Z,64.20
2019-05-25T10:16:02.626Z,63.90
2019-05-25T10:18:31.148Z,63.20
2019-05-25T10:20:59.638Z,61.90
2019-05-25T10:23:28.080Z,61.40
2019-05-25T10:25:56.528Z,61.60
2019-05-25T10:28:24.968Z,60.70
2019-05-25T10:30:53.424Z,60.50
2019-05-25T10:33:22.009Z,60.70
2019-05-25T10:35:50.485Z,60.50
2019-05-25T10:38:18.920Z,60.40
2019-05-25T10:40:47.359Z,59.90
2019-05-25T10:43:15.894Z,59.30
2019-05-25T10:45:45.841Z,59.20
2019-05-25T10:48:14.305Z,59.10
2019-05-25T10:50:43.648Z,59.20
2019-05-25T10:53:13.809Z,59.30
2019-05-25T10:55:42.251Z,59.40
2019-05-25T10:58:10.694Z,60.00
2019-05-25T11:00:39.213Z,60.10
2019-05-25T11:03:08.785Z,60.40
2019-05-25T11:05:38.799Z,61.60
2019-05-25T11:08:07.243Z,60.90
2019-05-25T11:10:35.742Z,61.00
2019-05-25T11:13:04.205Z,61.10
2019-05-25T11:15:32.660Z,60.40
2019-05-25T11:18:01.115Z,60.40
2019-05-25T11:20:29.618Z,61.00
2019-05-25T11:22:58.051Z,60.60
2019-05-25T11:25:26.500Z,60.00
2019-05-25T11:27:54.926Z,58.90
2019-05-25T11:30:23.820Z,58.20
2019-05-25T11:32:52.269Z,57.60
2019-05-25T11:35:21.543Z,56.30
2019-05-25T11:37:49.996Z,56.80
2019-05-25T11:40:18.977Z,56.70
2019-05-25T11:42:47.424Z,57.00
2019-05-25T11:45:17.799Z,57.20
2019-05-25T11:47:46.249Z,57.00
2019-05-25T11:50:15.224Z,56.10
2019-05-25T11:52:43.699Z,56.10
2019-05-25T11:55:12.515Z,56.30
2019-05-25T11:57:40.959Z,55.90
2019-05-25T12:00:24.280Z,55.90
2019-05-25T12:02:42.131Z,55.40
2019-05-25T12:05:10.916Z,55.50
2019-05-25T12:07:39.343Z,55.50
2019-05-25T12:10:08.738Z,56.30
2019-05-25T12:12:37.195Z,57.00
2019-05-25T12:15:08.384Z,55.70
2019-05-25T12:17:36.856Z,55.00
2019-05-25T12:20:06.321Z,54.70
2019-05-25T12:22:34.845Z,54.10
2019-05-25T12:25:04.940Z,54.30
2019-05-25T12:27:33.383Z,53.80
2019-05-25T12:30:01.819Z,53.70
2019-05-25T12:32:30.283Z,53.10
2019-05-25T12:34:58.796Z,53.40
2019-05-25T12:37:27.236Z,51.40
2019-05-25T12:39:55.680Z,51.30
2019-05-25T12:42:24.110Z,51.60
2019-05-25T12:44:52.619Z,52.20
2019-05-25T12:47:21.057Z,52.30
2019-05-25T12:49:51.093Z,52.30
2019-05-25T12:52:19.891Z,52.40
2019-05-25T12:54:48.340Z,51.70
2019-05-25T12:57:16.930Z,51.70
2019-05-25T12:59:45.436Z,52.10
2019-05-25T13:02:13.934Z,51.40
2019-05-25T13:04:42.412Z,51.10
2019-05-25T13:07:10.916Z,51.40
2019-05-25T13:09:40.918Z,51.20
2019-05-25T13:12:09.372Z,51.50
2019-05-25T13:14:37.815Z,50.00
2019-05-25T13:17:06.251Z,49.80
2019-05-25T13:19:34.714Z,49.80
2019-05-25T13:22:03.164Z,50.00
2019-05-25T13:24:31.611Z,50.40
2019-05-25T13:27:00.058Z,50.60
2019-05-25T13:29:28.517Z,50.60
2019-05-25T13:31:56.944Z,50.60
2019-05-25T13:34:25.440Z,50.20
2019-05-25T13:36:53.932Z,50.20
2019-05-25T13:39:22.368Z,50.00
2019-05-25T13:41:50.849Z,49.60
2019-05-25T13:44:19.320Z,50.00
2019-05-25T13:46:47.791Z,50.10
2019-05-25T13:49:16.299Z,49.40
2019-05-25T13:51:44.813Z,48.60
2019-05-25T13:54:13.287Z,48.60
2019-05-25T13:56:42.510Z,48.50
2019-05-25T13:59:11.028Z,49.10
2019-05-25T14:01:39.458Z,48.90
2019-05-25T14:04:07.905Z,49.20
2019-05-25T14:06:36.359Z,49.40
2019-05-25T14:09:06.639Z,49.10
2019-05-25T14:11:35.152Z,49.40
2019-05-25T14:14:03.611Z,49.40
2019-05-25T14:16:32.049Z,48.50
2019-05-25T14:19:00.489Z,48.50
2019-05-25T14:21:28.938Z,47.70
2019-05-25T14:23:57.362Z,47.00
2019-05-25T14:26:25.848Z,48.10
2019-05-25T14:28:54.270Z,48.70
2019-05-25T14:31:25.291Z,48.90
2019-05-25T14:33:53.726Z,48.80
2019-05-25T14:36:22.162Z,47.80
2019-05-25T14:38:50.623Z,48.10
2019-05-25T14:41:19.131Z,48.10
2019-05-25T14:43:47.560Z,49.20
2019-05-25T14:46:27.417Z,48.70
2019-05-25T14:48:47.730Z,48.10
2019-05-25T14:51:16.219Z,48.10
2019-05-25T14:53:44.657Z,48.60
2019-05-25T14:56:16.059Z,49.40
2019-05-25T14:58:46.269Z,49.00
2019-05-25T15:01:14.820Z,49.30
2019-05-25T15:03:43.278Z,49.30
2019-05-25T15:06:11.703Z,49.00
2019-05-25T15:08:40.168Z,48.80
2019-05-25T15:11:08.676Z,48.90
2019-05-25T15:13:37.119Z,49.40
2019-05-25T15:16:05.555Z,48.80
2019-05-25T15:18:34.026Z,48.50
2019-05-25T15:21:02.531Z,48.60
2019-05-25T15:23:30.958Z,49.20
2019-05-25T15:25:59.402Z,49.70
2019-05-25T15:28:27.916Z,50.10
2019-05-25T15:30:56.351Z,50.50
2019-05-25T15:33:24.800Z,50.70
2019-05-25T15:35:53.227Z,50.60
2019-05-25T15:38:21.674Z,50.90
2019-05-25T15:40:50.116Z,50.90
2019-05-25T15:43:18.559Z,50.90
2019-05-25T15:45:48.658Z,50.20
2019-05-25T15:48:17.171Z,50.40
2019-05-25T15:50:45.601Z,50.30
2019-05-25T15:53:14.053Z,49.90
2019-05-25T15:55:42.509Z,50.30
2019-05-25T15:58:10.948Z,50.30
2019-05-25T16:00:44.999Z,50.40
2019-05-25T16:03:13.704Z,50.20
2019-05-25T16:05:47.369Z,50.40
2019-05-25T16:08:14.203Z,50.10
2019-05-25T16:10:42.642Z,50.80
2019-05-25T16:13:11.163Z,51.20
2019-05-25T16:15:39.590Z,51.10
2019-05-25T16:18:08.094Z,50.90
2019-05-25T16:20:37.202Z,51.40
2019-05-25T16:23:05.644Z,51.00
2019-05-25T16:25:34.451Z,50.90
2019-05-25T16:28:02.879Z,51.30
2019-05-25T16:30:35.261Z,51.10
2019-05-25T16:33:13.774Z,51.20
2019-05-25T16:35:33.918Z,51.40
2019-05-25T16:38:02.600Z,51.00
2019-05-25T16:40:31.171Z,51.40
2019-05-25T16:42:59.617Z,51.40
2019-05-25T16:45:28.071Z,51.50
2019-05-25T16:47:56.609Z,51.90
2019-05-25T16:50:25.035Z,51.60
2019-05-25T16:52:53.530Z,51.30
2019-05-25T16:55:22.003Z,51.40
2019-05-25T16:57:50.447Z,51.30
2019-05-25T17:00:31.246Z,51.30
2019-05-25T17:02:59.834Z,51.40
2019-05-25T17:05:28.828Z,51.20
2019-05-25T17:08:00.475Z,51.40
2019-05-25T17:10:28.935Z,51.00
2019-05-25T17:12:57.378Z,50.90
2019-05-25T17:15:25.840Z,51.40
2019-05-25T17:17:54.353Z,51.60
2019-05-25T17:20:22.867Z,51.40
2019-05-25T17:22:51.308Z,51.30
2019-05-25T17:25:21.940Z,51.40
2019-05-25T17:27:50.460Z,52.20
2019-05-25T17:30:21.974Z,52.20
2019-05-25T17:32:50.420Z,52.30
2019-05-25T17:35:18.877Z,52.40
2019-05-25T17:37:47.307Z,52.60
2019-05-25T17:40:16.007Z,52.80
2019-05-25T17:42:44.436Z,52.30
2019-05-25T17:45:13.023Z,52.10
2019-05-25T17:47:41.485Z,52.30
2019-05-25T17:50:11.539Z,52.40
2019-05-25T17:52:39.985Z,53.00
2019-05-25T17:55:09.785Z,53.70
2019-05-25T17:57:38.292Z,54.30
2019-05-25T18:00:07.857Z,54.60
2019-05-25T18:02:36.311Z,54.30
2019-05-25T18:05:07.411Z,54.10
2019-05-25T18:07:35.887Z,54.20
2019-05-25T18:10:07.080Z,54.50
2019-05-25T18:12:35.672Z,54.90
2019-05-25T18:15:07.328Z,55.10
2019-05-25T18:17:35.763Z,55.10
2019-05-25T18:20:07.146Z,55.30
2019-05-25T18:22:35.588Z,55.50
2019-05-25T18:25:05.580Z,55.90
2019-05-25T18:27:34.021Z,56.20
2019-05-25T18:30:02.477Z,56.20
2019-05-25T18:32:30.919Z,56.50
2019-05-25T18:34:59.367Z,56.70
2019-05-25T18:37:27.821Z,57.00
2019-05-25T18:39:56.257Z,57.30
2019-05-25T18:42:24.708Z,57.60
2019-05-25T18:44:53.138Z,57.80
2019-05-25T18:47:21.600Z,58.10
2019-05-25T18:49:50.040Z,58.40
2019-05-25T18:52:18.495Z,58.50
2019-05-25T18:54:46.931Z,58.60
2019-05-25T18:57:15.383Z,58.90
2019-05-25T18:59:43.897Z,59.10
2019-05-25T19:02:12.339Z,59.30
2019-05-25T19:04:47.615Z,59.50
2019-05-25T19:07:10.958Z,59.70
2019-05-25T19:09:39.398Z,60.00
2019-05-25T19:12:07.847Z,60.30
2019-05-25T19:14:36.287Z,60.60
2019-05-25T19:17:04.795Z,61.00
2019-05-25T19:19:33.242Z,61.40
2019-05-25T19:22:01.675Z,61.80
2019-05-25T19:24:30.204Z,62.10
2019-05-25T19:26:58.712Z,62.50
2019-05-25T19:29:27.168Z,62.80
2019-05-25T19:31:55.605Z,63.10
2019-05-25T19:34:24.049Z,63.30
2019-05-25T19:36:52.494Z,63.60
2019-05-25T19:39:20.989Z,63.70
2019-05-25T19:41:49.468Z,64.10
2019-05-25T19:44:17.981Z,64.30
2019-05-25T19:46:46.437Z,64.60
2019-05-25T19:49:14.864Z,64.90
2019-05-25T19:51:43.296Z,65.10
2019-05-25T19:54:11.753Z,65.40
2019-05-25T19:56:41.810Z,65.70
2019-05-25T19:59:10.292Z,65.90
2019-05-25T20:01:38.744Z,66.20
2019-05-25T20:04:07.271Z,66.40
2019-05-25T20:06:35.707Z,66.60
2019-05-25T20:09:06.300Z,66.80
2019-05-25T20:11:34.747Z,67.10
2019-05-25T20:14:04.540Z,67.40
2019-05-25T20:16:33.032Z,67.50
2019-05-25T20:19:01.566Z,67.90
2019-05-25T20:21:30.040Z,68.20
2019-05-25T20:23:58.463Z,68.40
2019-05-25T20:26:26.924Z,68.70
2019-05-25T20:29:14.705Z,68.90
2019-05-25T20:31:43.143Z,69.20
2019-05-25T20:34:11.596Z,69.60
2019-05-25T20:36:40.047Z,69.90
2019-05-25T20:39:08.481Z,70.10
2019-05-25T20:41:36.920Z,70.50
2019-05-25T20:44:05.446Z,70.70
2019-05-25T20:46:33.979Z,71.20
2019-05-25T20:49:06.532Z,71.60
2019-05-25T20:51:34.967Z,72.00
2019-05-25T20:54:03.429Z,72.20
2019-05-25T20:56:31.858Z,72.50
2019-05-25T20:59:03.230Z,72.90
2019-05-25T21:01:31.688Z,73.20
2019-05-25T21:04:00.133Z,74.00
2019-05-25T21:06:31.090Z,74.00
2019-05-25T21:09:00.554Z,74.20
2019-05-25T21:11:28.998Z,74.40
2019-05-25T21:13:57.447Z,74.60
2019-05-25T21:16:25.904Z,74.80
2019-05-25T21:18:54.335Z,74.90
2019-05-25T21:21:23.266Z,75.30
2019-05-25T21:23:51.710Z,75.50
2019-05-25T21:26:20.182Z,75.70
2019-05-25T21:28:48.641Z,75.80
2019-05-25T21:31:17.086Z,76.10
2019-05-25T21:33:45.533Z,76.20
2019-05-25T21:36:13.981Z,76.40
2019-05-25T21:38:42.441Z,76.40
2019-05-25T21:41:10.885Z,76.60
2019-05-25T21:43:39.344Z,76.70
2019-05-25T21:46:07.800Z,76.90
2019-05-25T21:48:36.243Z,77.10
2019-05-25T21:51:04.757Z,77.40
2019-05-25T21:53:33.203Z,77.40
2019-05-25T21:56:01.662Z,77.40
2019-05-25T21:58:30.101Z,77.80
2019-05-25T22:00:58.612Z,77.70
2019-05-25T22:03:29.055Z,77.90
2019-05-25T22:05:57.265Z,78.00
2019-05-25T22:08:25.697Z,78.20
2019-05-25T22:10:54.142Z,78.30
2019-05-25T22:13:28.327Z,78.60
2019-05-25T22:15:52.775Z,78.60
2019-05-25T22:18:21.208Z,78.70
2019-05-25T22:20:49.705Z,78.80
2019-05-25T22:23:18.149Z,78.80
2019-05-25T22:25:46.597Z,78.90
2019-05-25T22:28:15.048Z,79.10
2019-05-25T22:30:43.484Z,79.20
2019-05-25T22:33:11.918Z,79.40
2019-05-25T22:35:40.392Z,79.40
2019-05-25T22:38:08.875Z,79.70
2019-05-25T22:40:37.325Z,79.80
2019-05-25T22:43:05.771Z,79.80
2019-05-25T22:45:34.249Z,79.80
2019-05-25T22:48:02.724Z,80.00
2019-05-25T22:50:31.187Z,80.10
2019-05-25T22:53:00.037Z,80.10
2019-05-25T22:55:28.466Z,80.20
2019-05-25T22:57:56.910Z,80.30
2019-05-25T23:00:25.410Z,80.20
2019-05-25T23:02:53.859Z,80.30
2019-05-25T23:05:22.369Z,80.50
2019-05-25T23:07:50.811Z,80.70
2019-05-25T23:10:21.882Z,80.90
2019-05-25T23:12:50.336Z,81.00
2019-05-25T23:15:18.856Z,81.20
2019-05-25T23:17:47.346Z,81.30
2019-05-25T23:20:15.838Z,81.50
2019-05-25T23:22:44.285Z,81.60
2019-05-25T23:25:12.796Z,81.70
2019-05-25T23:27:41.242Z,81.70
2019-05-25T23:30:10.141Z,82.00
2019-05-25T23:32:38.579Z,82.00
2019-05-25T23:35:07.502Z,82.20
2019-05-25T23:37:35.985Z,82.20
2019-05-25T23:40:08.884Z,82.40
2019-05-25T23:42:37.366Z,82.50
2019-05-25T23:45:07.801Z,82.80
2019-05-25T23:47:36.337Z,82.90
2019-05-25T23:50:08.443Z,82.90
2019-05-25T23:52:36.907Z,83.10
2019-05-25T23:55:06.580Z,83.10
2019-05-25T23:57:35.087Z,83.20
